• Join FlightAware (Why Join?)
  • Login
  • US Flag 
01:20PM EDT


 

Airport Tracker/Info


-or-


 

Live Flight TrackerFlight Track Log ✈ DAL6089 ✈ 19-Apr-2013 ✈ KSDF - KLGA

Flight Track Log - Related Links

Times and Time Zones

All times are in EDT time to prevent confusion due to time zone crossing. See the DAL6089 flight status page for this flight to view local times or setup timezone preferences in your user account.

Time Position Orientation Groundspeed Altitude Reporting Facility
EDT Latitude Longitude Course Direction KTS MPH feet Rate Location/Type
06:27AM 38.2156 -85.7375 96° East 167 192 2,300  Level FAA TRACON SMA TRACON (SMA)
06:27AM 38.2319 -85.7411 350° North 188 216 2,700 1,920 Climbing FAA TRACON SMA TRACON (SMA)
06:27AM 38.2497 -85.7422 357° North 209 241 3,600 2,700 Climbing FAA TRACON SMA TRACON (SMA)
06:28AM 38.2664 -85.7200 46° Northeast 240 276 4,500 1,860 Climbing FAA TRACON SMA TRACON (SMA)
06:28AM 38.2647 -85.6931 94° East 258 297 4,900 1,380 Climbing FAA TRACON SMA TRACON (SMA)
06:28AM 38.2519 -85.6697 125° Southeast 262 302 5,400 2,100 Climbing FAA TRACON SMA TRACON (SMA)
06:29AM 38.2381 -85.6467 127° Southeast 266 306 6,300 2,820 Climbing FAA TRACON SMA TRACON (SMA)
06:29AM 38.2208 -85.6175 127° Southeast 267 307 7,300 2,700 Climbing FAA TRACON SMA TRACON (SMA)
06:29AM 38.2075 -85.5931 125° Southeast 271 312 8,100 1,800 Climbing FAA TRACON SMA TRACON (SMA)
06:30AM 38.0396 -85.1820 101° East  Level FlightAware Approximate
06:30AM 38.1939 -85.5686 125° Southeast 276 318 8,500  Level FAA TRACON SMA TRACON (SMA)
06:30AM 38.1756 -85.5358 125° Southeast 291 335 9,200 2,220 Climbing FAA TRACON SMA TRACON (SMA)
06:30AM 38.1608 -85.5097 126° Southeast 296 341 10,000 1,800 Climbing FAA TRACON SMA TRACON (SMA)
06:31AM 38.0174 -85.0379 101° East  Level FlightAware Approximate
06:31AM 38.1458 -85.4825 125° Southeast 301 346 10,400  Level FAA TRACON SMA TRACON (SMA)
06:31AM 38.1303 -85.4544 125° Southeast 309 356 10,700 1,020 Climbing FAA TRACON SMA TRACON (SMA)
06:31AM 38.1100 -85.4172 125° Southeast 332 382 11,100 1,020 Climbing FAA TRACON SMA TRACON (SMA)
06:32AM 37.9832 -84.8978 96° East  Level FlightAware Approximate
06:32AM 38.0928 -85.3861 125° Southeast 344 396 11,400  Level FAA TRACON SMA TRACON (SMA)
06:32AM 38.0761 -85.3533 123° Southeast 355 409 11,700 1,200 Climbing FAA TRACON SMA TRACON (SMA)
06:32AM 38.0628 -85.3042 109° East 382 440 12,200 1,200 Climbing FAA TRACON SMA TRACON (SMA)
06:33AM 38.0556 -85.2617 102° East 397 457 12,500 1,200 Climbing FAA TRACON SMA TRACON (SMA)
06:33AM 38.0464 -85.2078 102° East 407 468 13,000 1,620 Climbing FAA TRACON SMA TRACON (SMA)
06:33AM 38.0403 -85.1642 100° East 409 471 13,600 1,800 Climbing FAA TRACON SMA TRACON (SMA)
06:34AM 38.0331 -85.1214 102° East 405 466 14,200 1,800 Climbing FAA TRACON SMA TRACON (SMA)
06:34AM 38.0258 -85.0789 102° East 402 463 14,800 2,100 Climbing FAA TRACON SMA TRACON (SMA)
06:34AM 38.0183 -85.0261 100° East 395 455 15,600 2,100 Climbing FAA TRACON SMA TRACON (SMA)
06:35AM 38.0114 -84.9853 102° East 387 445 16,200 2,100 Climbing FAA TRACON SMA TRACON (SMA)
06:35AM 38.0047 -84.9347 99° East 378 435 17,000 2,040 Climbing FAA TRACON SMA TRACON (SMA)
06:35AM 37.9981 -84.8961 102° East 368 423 17,600 1,980 Climbing FAA TRACON SMA TRACON (SMA)
06:36AM 37.9917 -84.8578 102° East 363 418 18,300 1,800 Climbing FAA TRACON SMA TRACON (SMA)
06:36AM 37.9864 -84.8189 100° East 363 418 18,800 1,620 Climbing FAA TRACON SMA TRACON (SMA)
06:36AM 37.9794 -84.7694 100° East 369 425 19,400 1,500 Climbing FAA TRACON SMA TRACON (SMA)
06:37AM 37.9722 -84.7303 103° East 370 426 19,800 1,260 Climbing FAA TRACON SMA TRACON (SMA)
06:37AM 37.9664 -84.6903 100° East 373 429 20,300 1,620 Climbing FAA TRACON SMA TRACON (SMA)
06:37AM 37.9586 -84.6403 101° East 376 433 20,900 1,620 Climbing FAA TRACON SMA TRACON (SMA)
06:38AM 37.9531 -84.5997 100° East 379 436 21,400 1,500 Climbing FAA TRACON SMA TRACON (SMA)
06:38AM 37.9461 -84.5594 102° East 380 437 21,900 1,620 Climbing FAA TRACON SMA TRACON (SMA)
06:38AM 37.9386 -84.5083 101° East 383 441 22,500 1,320 Climbing FAA TRACON SMA TRACON (SMA)
06:39AM 37.9133 -84.3856 105° East 381 438 23,900 1,380 Climbing Indianapolis Center
06:40AM 37.8914 -84.2519 102° East 387 445 25,500 1,500 Climbing Indianapolis Center
06:41AM 37.8694 -84.1200 102° East 385 443 27,000 1,500 Climbing Indianapolis Center
06:43AM 37.8475 -83.9869 102° East 385 443 28,600 1,500 Climbing Indianapolis Center
06:44AM 37.8242 -83.8547 103° East 385 443 30,100 1,440 Climbing Indianapolis Center
06:45AM 37.8031 -83.7211 101° East 387 445 31,600 1,320 Climbing Indianapolis Center
06:46AM 37.7800 -83.5900 103° East 381 438 32,900 660 Climbing Indianapolis Center
06:47AM 37.7522 -83.4303 102° East 398 458 33,000 480 Climbing Indianapolis Center
06:48AM 37.7261 -83.2794 102° East 430 495 33,900 960 Climbing Indianapolis Center
06:49AM 37.7006 -83.1303 102° East 434 499 35,000 540 Climbing Indianapolis Center
06:50AM 37.6728 -82.9786 103° East 441 507 35,100 720 Climbing Indianapolis Center
06:51AM 37.6464 -82.8228 102° East 448 516 36,500 900 Climbing Indianapolis Center
06:52AM 37.6419 -82.6667 92° East 459 528 37,000 240 Climbing Indianapolis Center
06:53AM 37.6583 -82.5008 83° East 477 549 37,000  Level Indianapolis Center
06:54AM 37.6719 -82.3328 84° East 478 550 37,000  Level Indianapolis Center
06:55AM 37.6878 -82.1750 83° East 456 525 37,000  Level Indianapolis Center
06:56AM 37.7033 -82.0139 83° East 459 528 37,000  Level Indianapolis Center
06:57AM 37.7178 -81.8539 83° East 459 528 37,000  Level Indianapolis Center
06:58AM 37.7322 -81.6925 83° East 463 533 37,000  Level Indianapolis Center
06:59AM 37.7467 -81.5303 84° East 464 534 37,000  Level Indianapolis Center
07:01AM 37.7750 -81.1567 84° East 457 526 37,000  Level Washington Center
07:02AM 37.7886 -80.9972 84° East 457 526 37,000  Level Washington Center
07:03AM 37.8000 -80.8325 85° East 457 526 37,000  Level Washington Center
07:04AM 37.8086 -80.6833 86° East 463 533 37,000  Level Washington Center
07:05AM 37.8194 -80.5211 85° East 468 539 37,000  Level Washington Center
07:06AM 37.8303 -80.3586 85° East 463 533 37,000  Level Washington Center
07:07AM 37.8408 -80.1936 85° East 458 527 37,000  Level Washington Center
07:08AM 37.8514 -80.0311 85° East 458 527 37,000  Level Washington Center
07:09AM 37.8619 -79.8503 86° East 464 534 37,000  Level Washington Center
07:10AM 37.8739 -79.6881 85° East 464 534 37,000  Level Washington Center
07:11AM 37.8836 -79.5228 86° East 464 534 37,000  Level Washington Center
07:12AM 37.8908 -79.3625 87° East 459 528 37,000  Level Washington Center
07:13AM 37.9000 -79.1972 86° East 459 528 37,000  Level Washington Center
07:14AM 37.9133 -79.0344 84° East 459 528 37,000  Level Washington Center
07:15AM 37.9297 -78.8906 82° East 459 528 37,000  Level Washington Center
07:16AM 37.9508 -78.7283 81° East 459 528 37,000  Level Washington Center
07:17AM 37.9675 -78.5708 82° East 460 529 37,000  Level Washington Center
07:18AM 37.9878 -78.4136 81° East 460 529 37,000  Level Washington Center
07:19AM 38.0064 -78.2403 82° East 454 522 37,000  Level Washington Center
07:20AM 38.0158 -78.0956 85° East 454 522 37,000  Level Washington Center
07:21AM 38.0256 -77.9219 86° East 454 522 37,000  Level Washington Center
07:22AM 38.0364 -77.7825 84° East 449 517 37,000  Level Washington Center
07:23AM 38.0456 -77.6272 86° East 449 517 37,000 -660 Level Washington Center
07:24AM 38.0853 -77.4833 71° East 437 503 35,700 -1,440 Descending Washington Center
07:25AM 38.1417 -77.3475 62° Northeast 427 491 34,200 -1,320 Descending Washington Center
07:26AM 38.2042 -77.2061 61° Northeast 439 505 33,100 -600 Descending Washington Center
07:27AM 38.2622 -77.0594 63° Northeast 453 521 33,000 -60 Descending Washington Center
07:28AM 38.3222 -76.9203 61° Northeast 445 512 33,000  Level Washington Center
07:29AM 38.3800 -76.7756 63° Northeast 440 506 33,000  Level Washington Center
07:30AM 38.4397 -76.6333 62° Northeast 445 512 33,000  Level Washington Center
07:31AM 38.4992 -76.4911 62° Northeast 445 512 33,000  Level Washington Center
07:32AM 38.5586 -76.3483 62° Northeast 445 512 33,000  Level Washington Center
07:33AM 38.6158 -76.2056 63° Northeast 445 512 33,000 -180 Level Washington Center
07:34AM 38.6872 -76.0492 60° Northeast 453 521 32,700 -1,380 Descending Washington Center
07:35AM 38.7794 -75.9458 41° Northeast 445 512 30,300 -2,580 Descending Washington Center
07:36AM 38.8797 -75.8531 36° Northeast 432 497 27,600 -1,680 Descending Washington Center
07:37AM 38.9861 -75.7519 36° Northeast 453 521 27,000 -300 Descending Washington Center
07:38AM 39.0925 -75.6478 37° Northeast 466 536 27,000  Level Washington Center
07:39AM 39.2031 -75.5433 36° Northeast 476 548 27,000  Level Washington Center
07:40AM 39.3133 -75.4442 35° Northeast 481 554 27,000 -720 Level Washington Center
07:41AM 39.4278 -75.3444 34° Northeast 481 554 25,600 -1,800 Descending Washington Center
07:42AM 39.5317 -75.2497 35° Northeast 481 554 23,400 -2,280 Descending Washington Center
07:43AM 39.6397 -75.1469 36° Northeast 476 548 21,100 -2,280 Descending Washington Center
07:44AM 39.7353 -75.0653 33° Northeast 468 539 18,900 -2,400 Descending Washington Center
07:45AM 39.8453 -74.9700 34° Northeast 450 518 16,300 -2,520 Descending Washington Center
07:46AM 39.9833 -74.8167 40° Northeast 432 497 12,900 -2,220 Descending New York TRACON
07:48AM 40.0667 -74.7000 47° Northeast 403 464 10,800 -1,620 Descending New York TRACON
07:48AM 40.1333 -74.6167 44° Northeast 349 402 9,700 -1,260 Descending New York TRACON
07:49AM 40.1833 -74.5167 57° Northeast 320 368 8,500 -780 Descending New York TRACON
07:51AM 40.2500 -74.4500 37° Northeast 281 323 8,100 -480 Descending New York TRACON
07:52AM 40.3000 -74.3667 52° Northeast 276 318 7,600 -600 Descending New York TRACON
07:53AM 40.3500 -74.3000 45° Northeast 271 312 7,000 -300 Descending New York TRACON
07:54AM 40.4167 -74.2500 30° Northeast 250 288 7,100  Climbing New York TRACON
07:55AM 40.4833 -74.2667 349° North 239 275 7,100  Level New York TRACON
07:56AM 40.5167 -74.2167 49° Northeast 235 270 7,100 -60 Level New York TRACON
07:57AM 40.5000 -74.1500 108° East 207 238 7,000 -600 Descending New York TRACON
07:58AM 40.5500 -74.1000 37° Northeast 246 283 5,900 -960 Descending New York TRACON
07:59AM 40.6167 -74.0667 21° North 237 273 5,000 -960 Descending New York TRACON
08:00AM 40.6833 -74.0500 11° North 230 265 4,100 -480 Descending New York TRACON
08:01AM 40.7500 -74.0167 21° North 238 274 4,100  Level New York TRACON
08:02AM 40.8000 -73.9833 27° Northeast 233 268 4,100 -420 Level New York TRACON
08:03AM 40.8500 -73.9333 37° Northeast 232 267 3,400 -480 Descending New York TRACON
08:04AM 40.9167 -73.9000 21° North 230 265 3,100 -180 Descending New York TRACON
08:05AM 40.9500 -73.8500 49° Northeast 234 269 3,100  Level New York TRACON